createdAt,value
2019-05-09T00:01:04.062Z,7.27
2019-05-09T00:03:33.606Z,7.10
2019-05-09T00:06:04.591Z,6.63
2019-05-09T00:08:33.943Z,5.40
2019-05-09T00:11:03.638Z,7.60
2019-05-09T00:13:34.174Z,8.47
2019-05-09T00:16:08.980Z,6.20
2019-05-09T00:18:38.435Z,5.37
2019-05-09T00:21:15.700Z,7.33
2019-05-09T00:23:44.725Z,4.80
2019-05-09T00:26:13.906Z,8.33
2019-05-09T00:28:46.116Z,5.73
2019-05-09T00:31:33.808Z,6.33
2019-05-09T00:34:05.245Z,6.00
2019-05-09T00:36:34.388Z,8.83
2019-05-09T00:39:04.247Z,6.87
2019-05-09T00:41:33.441Z,7.63
2019-05-09T00:44:08.989Z,6.20
2019-05-09T00:46:48.459Z,6.57
2019-05-09T00:49:20.284Z,6.87
2019-05-09T00:51:49.451Z,4.83
2019-05-09T00:54:18.572Z,6.87
2019-05-09T00:56:53.947Z,4.97
2019-05-09T00:59:24.123Z,6.77
2019-05-09T01:01:54.317Z,6.47
2019-05-09T01:04:24.249Z,5.93
2019-05-09T01:06:54.088Z,6.20
2019-05-09T01:09:24.205Z,8.93
2019-05-09T01:11:54.237Z,8.53
2019-05-09T01:14:23.670Z,5.80
2019-05-09T01:16:53.598Z,6.17
2019-05-09T01:19:23.401Z,5.57
2019-05-09T01:21:54.258Z,5.07
2019-05-09T01:24:23.572Z,5.80
2019-05-09T01:26:54.249Z,5.13
2019-05-09T01:29:23.508Z,7.33
2019-05-09T01:31:54.892Z,8.07
2019-05-09T01:34:29.857Z,6.43
2019-05-09T01:37:09.643Z,5.97
2019-05-09T01:39:38.938Z,5.23
2019-05-09T01:42:08.159Z,5.90
2019-05-09T01:44:38.118Z,7.27
2019-05-09T01:47:07.326Z,6.07
2019-05-09T01:49:36.430Z,7.73
2019-05-09T01:52:05.886Z,6.93
2019-05-09T01:54:37.480Z,5.73
2019-05-09T01:57:06.656Z,7.10
2019-05-09T01:59:35.739Z,9.90
2019-05-09T02:02:08.507Z,9.13
2019-05-09T02:04:36.038Z,8.23
2019-05-09T02:07:05.380Z,6.10
2019-05-09T02:09:34.638Z,6.80
2019-05-09T02:12:04.291Z,7.87
2019-05-09T02:14:40.003Z,9.17
2019-05-09T02:17:19.675Z,7.50
2019-05-09T02:19:48.962Z,9.83
2019-05-09T02:22:34.524Z,8.90
2019-05-09T02:25:05.937Z,10.10
2019-05-09T02:27:35.128Z,11.33
2019-05-09T02:30:05.996Z,12.07
2019-05-09T02:32:35.820Z,9.23
2019-05-09T02:35:05.718Z,13.00
2019-05-09T02:37:38.562Z,12.57
2019-05-09T02:40:09.206Z,12.90
2019-05-09T02:42:39.662Z,10.57
2019-05-09T02:45:09.297Z,12.90
2019-05-09T02:47:38.785Z,10.33
2019-05-09T02:50:10.101Z,13.67
2019-05-09T02:52:39.912Z,11.00
2019-05-09T02:55:10.745Z,14.40
2019-05-09T02:57:40.132Z,11.43
2019-05-09T03:00:20.553Z,13.57
2019-05-09T03:03:03.415Z,12.40
2019-05-09T03:05:32.511Z,12.93
2019-05-09T03:08:01.700Z,14.53
2019-05-09T03:10:30.933Z,13.37
2019-05-09T03:13:00.206Z,11.93
2019-05-09T03:15:29.623Z,13.47
2019-05-09T03:18:04.061Z,13.83
2019-05-09T03:20:41.052Z,15.03
2019-05-09T03:23:10.140Z,15.13
2019-05-09T03:25:40.921Z,15.23
2019-05-09T03:28:28.408Z,16.37
2019-05-09T03:30:59.478Z,17.13
2019-05-09T03:33:30.843Z,15.07
2019-05-09T03:35:59.620Z,14.73
2019-05-09T03:38:28.811Z,13.33
2019-05-09T03:40:58.291Z,14.00
2019-05-09T03:43:27.647Z,15.60
2019-05-09T03:46:07.855Z,17.80
2019-05-09T03:48:41.742Z,16.87
2019-05-09T03:51:11.053Z,12.30
2019-05-09T03:53:48.238Z,13.37
2019-05-09T03:56:20.032Z,16.73
2019-05-09T03:58:49.409Z,14.67
2019-05-09T04:01:18.456Z,14.03
2019-05-09T04:03:48.162Z,16.87
2019-05-09T04:06:18.411Z,13.47
2019-05-09T04:08:48.262Z,14.60
2019-05-09T04:11:18.544Z,15.33
2019-05-09T04:13:53.904Z,15.67
2019-05-09T04:16:23.010Z,16.43
2019-05-09T04:18:52.115Z,13.60
2019-05-09T04:21:21.396Z,14.40
2019-05-09T04:23:50.889Z,15.77
2019-05-09T04:26:33.602Z,14.73
2019-05-09T04:29:02.851Z,15.20
2019-05-09T04:31:38.363Z,14.13
2019-05-09T04:34:09.750Z,15.20
2019-05-09T04:36:38.753Z,12.00
2019-05-09T04:39:17.741Z,15.07
2019-05-09T04:41:43.584Z,12.23
2019-05-09T04:44:20.829Z,12.67
2019-05-09T04:46:48.554Z,15.73
2019-05-09T04:49:19.132Z,11.83
2019-05-09T04:51:50.410Z,12.33
2019-05-09T04:54:19.678Z,15.07
2019-05-09T04:56:48.880Z,14.83
2019-05-09T04:59:18.245Z,13.53
2019-05-09T05:02:00.351Z,13.13
2019-05-09T05:04:29.547Z,11.80
2019-05-09T05:06:59.045Z,10.97
2019-05-09T05:09:28.172Z,10.50
2019-05-09T05:11:57.880Z,10.87
2019-05-09T05:14:29.042Z,10.63
2019-05-09T05:17:07.677Z,11.53
2019-05-09T05:19:31.425Z,9.80
2019-05-09T05:22:07.795Z,12.00
2019-05-09T05:24:50.312Z,11.17
2019-05-09T05:27:22.394Z,9.20
2019-05-09T05:29:51.894Z,9.33
2019-05-09T05:32:32.787Z,10.30
2019-05-09T05:35:13.001Z,10.30
2019-05-09T05:37:42.203Z,11.10
2019-05-09T05:40:17.779Z,8.73
2019-05-09T05:42:52.760Z,9.97
2019-05-09T05:45:22.436Z,8.07
2019-05-09T05:47:58.438Z,8.83
2019-05-09T05:50:28.168Z,7.70
2019-05-09T05:52:57.878Z,8.43
2019-05-09T05:55:27.555Z,10.87
2019-05-09T05:57:58.056Z,10.90
2019-05-09T06:00:28.561Z,8.47
2019-05-09T06:03:03.974Z,7.77
2019-05-09T06:05:33.016Z,9.00
2019-05-09T06:08:02.138Z,7.37
2019-05-09T06:10:31.098Z,7.70
2019-05-09T06:13:00.150Z,7.33
2019-05-09T06:15:29.391Z,7.93
2019-05-09T06:17:58.766Z,8.63
2019-05-09T06:20:28.303Z,7.50
2019-05-09T06:22:58.134Z,8.07
2019-05-09T06:25:30.481Z,7.37
2019-05-09T06:27:58.677Z,7.20
2019-05-09T06:30:29.384Z,6.80
2019-05-09T06:32:59.068Z,7.40
2019-05-09T06:35:28.508Z,7.70
2019-05-09T06:37:58.681Z,6.23
2019-05-09T06:40:28.836Z,5.47
2019-05-09T06:42:59.338Z,7.87
2019-05-09T06:46:02.855Z,8.53
2019-05-09T06:48:32.075Z,6.53
2019-05-09T06:51:01.115Z,6.03
2019-05-09T06:53:30.162Z,5.93
2019-05-09T06:55:59.574Z,4.73
2019-05-09T06:58:31.910Z,6.53
2019-05-09T07:01:29.307Z,6.63
2019-05-09T07:04:09.148Z,6.07
2019-05-09T07:06:42.677Z,4.97
2019-05-09T07:09:28.148Z,5.27
2019-05-09T07:11:58.637Z,7.70
2019-05-09T07:14:32.703Z,5.77
2019-05-09T07:16:59.979Z,5.27
2019-05-09T07:19:29.149Z,4.10
2019-05-09T07:22:05.818Z,4.57
2019-05-09T07:24:58.048Z,6.30
2019-05-09T07:27:25.496Z,5.87
2019-05-09T07:29:58.078Z,5.53
2019-05-09T07:32:28.007Z,4.93
2019-05-09T07:35:04.290Z,6.50
2019-05-09T07:37:33.652Z,7.53
2019-05-09T07:40:02.846Z,4.13
2019-05-09T07:42:31.954Z,4.47
2019-05-09T07:45:01.350Z,4.33
2019-05-09T07:47:30.361Z,3.20
2019-05-09T07:50:03.289Z,6.33
2019-05-09T07:52:32.518Z,5.07
2019-05-09T07:55:01.942Z,4.33
2019-05-09T07:57:31.087Z,7.40
2019-05-09T08:00:00.181Z,5.57
2019-05-09T08:02:29.451Z,4.67
2019-05-09T08:04:58.817Z,4.70
2019-05-09T08:07:29.169Z,4.73
2019-05-09T08:10:04.047Z,4.90
2019-05-09T08:12:33.680Z,6.08
2019-05-09T08:15:13.856Z,6.13
2019-05-09T08:17:34.264Z,5.77
2019-05-09T08:20:03.624Z,6.97
2019-05-09T08:22:32.866Z,6.43
2019-05-09T08:25:02.265Z,5.63
2019-05-09T08:27:31.700Z,6.90
2019-05-09T08:30:00.881Z,6.13
2019-05-09T08:32:30.073Z,4.77
2019-05-09T08:34:59.431Z,4.83
2019-05-09T08:37:28.700Z,5.20
2019-05-09T08:40:02.249Z,8.43
2019-05-09T08:42:37.985Z,4.40
2019-05-09T08:45:17.359Z,6.43
2019-05-09T08:47:38.565Z,4.93
2019-05-09T08:50:17.790Z,4.97
2019-05-09T08:52:48.186Z,5.00
2019-05-09T08:55:17.880Z,5.87
2019-05-09T08:57:48.179Z,4.97
2019-05-09T09:00:18.867Z,6.13
2019-05-09T09:02:48.361Z,4.00
2019-05-09T09:05:18.733Z,7.03
2019-05-09T09:07:49.389Z,5.43
2019-05-09T09:10:18.908Z,4.90
2019-05-09T09:12:48.056Z,4.17
2019-05-09T09:15:17.978Z,3.87
2019-05-09T09:17:49.111Z,4.63
2019-05-09T09:20:18.369Z,4.93
2019-05-09T09:22:48.123Z,4.23
2019-05-09T09:25:18.571Z,6.83
2019-05-09T09:27:50.973Z,5.33
2019-05-09T09:30:24.717Z,6.80
2019-05-09T09:32:58.350Z,5.17
2019-05-09T09:35:32.049Z,5.83
2019-05-09T09:38:01.566Z,3.40
2019-05-09T09:40:30.904Z,4.97
2019-05-09T09:42:59.993Z,6.97
2019-05-09T09:45:29.195Z,5.33
2019-05-09T09:48:01.509Z,5.43
2019-05-09T09:50:30.664Z,2.27
2019-05-09T09:52:59.915Z,3.53
2019-05-09T09:55:29.644Z,6.30
2019-05-09T09:57:58.924Z,3.53
2019-05-09T10:00:58.430Z,6.60
2019-05-09T10:03:28.119Z,4.67
2019-05-09T10:05:57.877Z,2.40
2019-05-09T10:08:27.217Z,2.67
2019-05-09T10:10:58.968Z,3.33
2019-05-09T10:13:28.538Z,4.90
2019-05-09T10:16:25.573Z,4.50
2019-05-09T10:18:59.848Z,5.57
2019-05-09T10:21:42.706Z,5.07
2019-05-09T10:24:11.840Z,7.23
2019-05-09T10:27:00.120Z,7.00
2019-05-09T10:29:32.377Z,3.43
2019-05-09T10:32:02.914Z,4.20
2019-05-09T10:34:32.318Z,4.90
2019-05-09T10:37:02.738Z,4.87
2019-05-09T10:39:31.965Z,2.90
2019-05-09T10:42:02.548Z,2.67
2019-05-09T10:44:38.687Z,3.93
2019-05-09T10:47:19.452Z,4.90
2019-05-09T10:49:48.945Z,3.17
2019-05-09T10:52:30.525Z,4.50
2019-05-09T10:54:59.707Z,4.97
2019-05-09T10:57:31.472Z,8.17
2019-05-09T11:00:00.110Z,2.20
2019-05-09T11:02:29.432Z,1.97
2019-05-09T11:04:58.631Z,4.17
2019-05-09T11:07:28.945Z,2.30
2019-05-09T11:09:58.998Z,3.00
2019-05-09T11:12:28.406Z,2.63
2019-05-09T11:14:59.449Z,2.10
2019-05-09T11:17:28.765Z,1.70
2019-05-09T11:20:03.521Z,4.20
2019-05-09T11:22:32.888Z,4.70
2019-05-09T11:25:02.319Z,2.97
2019-05-09T11:27:31.854Z,4.07
2019-05-09T11:30:00.987Z,5.33
2019-05-09T11:32:30.040Z,4.63
2019-05-09T11:35:23.640Z,5.77
2019-05-09T11:37:52.799Z,4.80
2019-05-09T11:40:21.760Z,3.10
2019-05-09T11:42:50.853Z,4.50
2019-05-09T11:45:19.973Z,7.40
2019-05-09T11:47:49.532Z,5.43
2019-05-09T11:50:22.935Z,2.03
2019-05-09T11:52:55.265Z,4.17
2019-05-09T11:55:35.963Z,3.40
2019-05-09T11:58:05.190Z,3.33
2019-05-09T12:00:34.509Z,4.00
2019-05-09T12:03:03.940Z,3.03
2019-05-09T12:05:33.268Z,3.63
2019-05-09T12:08:08.270Z,3.77
2019-05-09T12:10:46.106Z,3.33
2019-05-09T12:13:15.342Z,5.53
2019-05-09T12:15:44.649Z,4.10
2019-05-09T12:18:13.862Z,2.13
2019-05-09T12:20:43.132Z,4.63
2019-05-09T12:23:12.754Z,3.67
2019-05-09T12:25:45.520Z,1.93
2019-05-09T12:28:14.799Z,5.43
2019-05-09T12:30:44.033Z,3.50
2019-05-09T12:33:18.661Z,3.30
2019-05-09T12:35:47.906Z,6.27
2019-05-09T12:38:22.789Z,4.27
2019-05-09T12:41:00.571Z,3.20
2019-05-09T12:43:28.415Z,3.43
2019-05-09T12:45:57.851Z,2.97
2019-05-09T12:48:28.042Z,2.73
2019-05-09T12:50:58.710Z,3.60
2019-05-09T12:53:29.276Z,2.13
2019-05-09T12:56:01.865Z,2.77
2019-05-09T12:58:31.111Z,2.00
2019-05-09T13:01:00.475Z,1.53
2019-05-09T13:03:30.386Z,2.00
2019-05-09T13:05:59.710Z,3.73
2019-05-09T13:08:28.935Z,3.53
2019-05-09T13:11:03.504Z,2.27
2019-05-09T13:13:33.130Z,3.67
2019-05-09T13:16:20.199Z,2.80
2019-05-09T13:19:04.257Z,4.83
2019-05-09T13:21:33.645Z,3.10
2019-05-09T13:24:04.585Z,3.63
2019-05-09T13:26:33.922Z,4.70
2019-05-09T13:29:03.148Z,4.20
2019-05-09T13:31:34.715Z,2.67
2019-05-09T13:34:03.500Z,3.70
2019-05-09T13:36:32.772Z,4.83
2019-05-09T13:39:05.056Z,3.27
2019-05-09T13:41:33.399Z,3.83
2019-05-09T13:44:05.331Z,3.97
2019-05-09T13:46:34.603Z,3.80
2019-05-09T13:49:11.635Z,1.90
2019-05-09T13:51:34.988Z,4.30
2019-05-09T13:54:04.379Z,2.63
2019-05-09T13:56:33.673Z,2.57
2019-05-09T13:59:02.881Z,5.67
2019-05-09T14:01:32.063Z,4.07
2019-05-09T14:04:02.171Z,3.53
2019-05-09T14:06:31.711Z,5.83
2019-05-09T14:09:00.844Z,3.23
2019-05-09T14:11:29.923Z,4.40
2019-05-09T14:13:59.277Z,3.50
2019-05-09T14:16:33.358Z,5.57
2019-05-09T14:19:24.617Z,3.57
2019-05-09T14:21:33.819Z,2.33
2019-05-09T14:24:14.138Z,3.80
2019-05-09T14:26:34.146Z,3.57
2019-05-09T14:29:03.709Z,3.20
2019-05-09T14:31:32.987Z,4.87
2019-05-09T14:34:02.520Z,3.90
2019-05-09T14:36:31.650Z,5.00
2019-05-09T14:39:00.823Z,2.93
2019-05-09T14:41:30.005Z,4.30
2019-05-09T14:43:59.990Z,6.07
2019-05-09T14:46:29.413Z,3.43
2019-05-09T14:48:58.655Z,3.60
2019-05-09T14:51:28.442Z,2.80
2019-05-09T14:53:59.354Z,2.20
2019-05-09T14:56:34.270Z,2.97
2019-05-09T14:59:03.814Z,3.97
2019-05-09T15:01:33.187Z,3.50
2019-05-09T15:04:02.515Z,2.43
2019-05-09T15:06:31.684Z,4.30
2019-05-09T15:09:00.931Z,2.20
2019-05-09T15:11:30.144Z,3.93
2019-05-09T15:13:59.212Z,2.20
2019-05-09T15:16:28.515Z,5.20
2019-05-09T15:18:58.395Z,4.43
2019-05-09T15:21:27.835Z,2.23
2019-05-09T15:23:58.698Z,3.03
2019-05-09T15:26:27.977Z,2.60
2019-05-09T15:28:57.987Z,2.00
2019-05-09T15:31:28.586Z,5.37
2019-05-09T15:34:02.887Z,4.77
2019-05-09T15:36:32.196Z,3.83
2019-05-09T15:39:01.378Z,4.30
2019-05-09T15:41:30.608Z,2.57
2019-05-09T15:43:59.814Z,3.80
2019-05-09T15:46:34.876Z,2.70
2019-05-09T15:49:04.198Z,2.67
2019-05-09T15:51:33.299Z,3.67
2019-05-09T15:54:02.380Z,4.00
2019-05-09T15:56:31.560Z,5.67
2019-05-09T15:59:01.331Z,3.27
2019-05-09T16:01:30.479Z,5.63
2019-05-09T16:03:59.635Z,6.17
2019-05-09T16:06:34.017Z,5.90
2019-05-09T16:09:07.549Z,4.53
2019-05-09T16:11:34.630Z,3.97
2019-05-09T16:14:04.156Z,4.43
2019-05-09T16:16:33.621Z,3.20
2019-05-09T16:19:09.757Z,4.13
2019-05-09T16:21:39.092Z,2.40
2019-05-09T16:24:09.960Z,5.27
2019-05-09T16:26:48.738Z,4.27
2019-05-09T16:29:18.424Z,4.33
2019-05-09T16:31:48.456Z,5.33
2019-05-09T16:34:18.123Z,3.07
2019-05-09T16:36:48.154Z,2.90
2019-05-09T16:39:18.267Z,3.17
2019-05-09T16:41:48.780Z,5.53
2019-05-09T16:44:18.673Z,2.63
2019-05-09T16:46:52.149Z,2.93
2019-05-09T16:49:26.013Z,3.97
2019-05-09T16:52:19.313Z,2.53
2019-05-09T16:54:50.377Z,3.97
2019-05-09T16:57:19.420Z,4.33
2019-05-09T17:00:11.879Z,2.20
2019-05-09T17:02:41.220Z,2.40
2019-05-09T17:05:10.528Z,2.63
2019-05-09T17:07:40.147Z,2.30
2019-05-09T17:10:09.544Z,4.70
2019-05-09T17:12:40.587Z,3.27
2019-05-09T17:15:09.875Z,1.97
2019-05-09T17:17:39.012Z,5.20
2019-05-09T17:20:10.195Z,2.17
2019-05-09T17:23:10.446Z,2.77
2019-05-09T17:25:31.366Z,1.83
2019-05-09T17:28:19.643Z,3.30
2019-05-09T17:30:51.934Z,5.60
2019-05-09T17:33:28.758Z,3.93
2019-05-09T17:36:03.283Z,2.37
2019-05-09T17:38:32.776Z,2.77
2019-05-09T17:41:08.128Z,4.20
2019-05-09T17:43:43.017Z,1.37
2019-05-09T17:46:19.956Z,1.40
2019-05-09T17:48:49.806Z,1.87
2019-05-09T17:51:32.613Z,3.60
2019-05-09T17:53:51.863Z,4.17
2019-05-09T17:56:22.989Z,3.03
2019-05-09T17:58:52.768Z,3.23
2019-05-09T18:01:23.155Z,2.90
2019-05-09T18:03:52.585Z,3.43
2019-05-09T18:06:22.031Z,2.07
2019-05-09T18:08:51.040Z,1.67
2019-05-09T18:11:20.119Z,2.80
2019-05-09T18:13:49.211Z,3.00
2019-05-09T18:16:19.041Z,1.33
2019-05-09T18:18:49.010Z,2.50
2019-05-09T18:21:18.107Z,1.80
2019-05-09T18:23:47.910Z,1.13
2019-05-09T18:26:22.168Z,3.97
2019-05-09T18:28:59.417Z,2.27
2019-05-09T18:31:37.417Z,1.80
2019-05-09T18:34:07.777Z,2.33
2019-05-09T18:36:38.217Z,1.70
2019-05-09T18:39:07.875Z,1.33
2019-05-09T18:41:37.080Z,3.43
2019-05-09T18:44:14.254Z,1.67
2019-05-09T18:46:43.386Z,1.57
2019-05-09T18:49:18.029Z,5.40
2019-05-09T18:52:03.213Z,2.63
2019-05-09T18:54:23.517Z,6.30
2019-05-09T18:56:55.182Z,2.63
2019-05-09T18:59:25.797Z,4.90
2019-05-09T19:01:55.224Z,4.10
2019-05-09T19:04:24.573Z,6.23
2019-05-09T19:06:53.852Z,4.77
2019-05-09T19:09:23.201Z,2.50
2019-05-09T19:11:52.914Z,2.27
2019-05-09T19:14:23.275Z,3.70
2019-05-09T19:17:20.597Z,3.90
2019-05-09T19:19:56.278Z,3.87
2019-05-09T19:22:25.606Z,2.90
2019-05-09T19:24:54.790Z,4.00
2019-05-09T19:27:23.973Z,3.53
2019-05-09T19:29:57.828Z,4.10
2019-05-09T19:32:42.970Z,3.13
2019-05-09T19:35:12.445Z,3.53
2019-05-09T19:37:42.567Z,6.37
2019-05-09T19:40:12.851Z,3.33
2019-05-09T19:42:42.211Z,3.53
2019-05-09T19:45:11.988Z,5.73
2019-05-09T19:47:41.251Z,7.40
2019-05-09T19:50:11.720Z,5.17
2019-05-09T19:52:46.476Z,4.80
2019-05-09T19:55:21.633Z,6.42
2019-05-09T19:57:57.046Z,4.27
2019-05-09T20:00:32.429Z,3.63
2019-05-09T20:03:07.345Z,4.07
2019-05-09T20:05:42.611Z,4.83
2019-05-09T20:08:18.059Z,4.50
2019-05-09T20:11:20.517Z,3.10
2019-05-09T20:14:09.729Z,4.60
2019-05-09T20:16:41.502Z,3.03
2019-05-09T20:19:20.008Z,4.43
2019-05-09T20:21:56.535Z,5.00
2019-05-09T20:24:30.950Z,5.37
2019-05-09T20:27:00.384Z,4.73
2019-05-09T20:29:30.405Z,7.60
2019-05-09T20:32:00.082Z,4.33
2019-05-09T20:34:29.718Z,5.90
2019-05-09T20:36:59.000Z,4.83
2019-05-09T20:39:33.348Z,4.03
2019-05-09T20:42:07.511Z,5.47
2019-05-09T20:44:37.025Z,3.53
2019-05-09T20:47:06.705Z,3.87
2019-05-09T20:49:36.133Z,5.97
2019-05-09T20:52:05.567Z,3.97
2019-05-09T20:54:34.880Z,8.17
2019-05-09T20:57:04.346Z,4.60
2019-05-09T20:59:33.745Z,10.67
2019-05-09T21:02:03.146Z,5.37
2019-05-09T21:04:32.457Z,3.27
2019-05-09T21:07:01.929Z,8.27
2019-05-09T21:09:31.577Z,3.27
2019-05-09T21:12:06.465Z,3.97
2019-05-09T21:14:36.263Z,5.57
2019-05-09T21:17:05.757Z,2.60
2019-05-09T21:19:35.282Z,4.97
2019-05-09T21:22:04.699Z,4.50
2019-05-09T21:24:34.127Z,2.87
2019-05-09T21:27:03.479Z,4.07
2019-05-09T21:29:33.480Z,3.40
2019-05-09T21:32:02.867Z,2.80
2019-05-09T21:34:32.262Z,2.43
2019-05-09T21:37:01.591Z,3.90
2019-05-09T21:39:30.859Z,2.83
2019-05-09T21:42:04.983Z,3.43
2019-05-09T21:44:45.914Z,2.63
2019-05-09T21:47:15.372Z,2.47
2019-05-09T21:49:44.484Z,4.50
2019-05-09T21:52:14.069Z,2.13
2019-05-09T21:54:43.341Z,3.00
2019-05-09T21:57:12.586Z,5.17
2019-05-09T21:59:41.852Z,4.73
2019-05-09T22:02:11.321Z,3.90
2019-05-09T22:04:40.710Z,2.93
2019-05-09T22:07:10.009Z,3.73
2019-05-09T22:09:39.543Z,3.90
2019-05-09T22:12:08.901Z,7.33
2019-05-09T22:14:43.433Z,3.97
2019-05-09T22:17:23.834Z,4.43
2019-05-09T22:19:53.160Z,3.43
2019-05-09T22:22:22.174Z,6.13
2019-05-09T22:24:51.411Z,4.90
2019-05-09T22:27:21.032Z,3.73
2019-05-09T22:29:50.271Z,3.37
2019-05-09T22:32:22.094Z,3.20
2019-05-09T22:34:50.208Z,2.87
2019-05-09T22:37:19.468Z,2.57
2019-05-09T22:39:48.621Z,3.07
2019-05-09T22:42:17.707Z,2.87
2019-05-09T22:44:46.897Z,2.43
2019-05-09T22:47:21.398Z,3.27
2019-05-09T22:49:52.680Z,5.17
2019-05-09T22:52:22.055Z,4.83
2019-05-09T22:54:51.332Z,3.20
2019-05-09T22:57:20.536Z,2.43
2019-05-09T22:59:49.784Z,4.37
2019-05-09T23:02:19.356Z,6.53
2019-05-09T23:04:48.551Z,5.07
2019-05-09T23:07:17.838Z,2.77
2019-05-09T23:09:47.052Z,2.60
2019-05-09T23:12:16.258Z,3.73
2019-05-09T23:14:45.386Z,5.53
2019-05-09T23:17:20.054Z,3.07
2019-05-09T23:19:54.564Z,3.23
2019-05-09T23:22:26.412Z,4.83
2019-05-09T23:24:55.708Z,3.73
2019-05-09T23:27:24.975Z,5.40
2019-05-09T23:29:54.160Z,4.97
2019-05-09T23:32:42.206Z,6.70
2019-05-09T23:35:11.493Z,5.20
2019-05-09T23:37:40.688Z,5.67
2019-05-09T23:40:09.919Z,5.20
2019-05-09T23:42:39.108Z,4.93
2019-05-09T23:45:08.252Z,4.30
2019-05-09T23:47:37.532Z,5.53
2019-05-09T23:50:11.864Z,5.10
2019-05-09T23:52:41.547Z,7.50
2019-05-09T23:55:28.574Z,7.43
2019-05-09T23:58:15.724Z,4.93
